METAR AND TAF INFORMATION
METAR FOR YSSY
YSSY 230430Z 32006KT CAVOK 19/04 Q1024
YSSY 230400Z 29005KT 270V350 CAVOK 20/05 Q1024 RF00.0/000.0
YSSY 230330Z 32006KT CAVOK 19/05 Q1025
YSSY 230300Z 26007KT CAVOK 19/06 Q1025
YSSY 230230Z 29008KT CAVOK 19/06 Q1025
YSSY 230200Z 29009KT CAVOK 18/06 Q1026
YSSY 230130Z 28010KT CAVOK 17/06 Q1026

TAF YSSY 230227Z 2303/2406 29008KT CAVOK
BECMG 2304/2306 02008KT CAVOK
FM231100 31008KT CAVOK
BECMG 2403/2405 02008KT CAVOK

 AIRPORT MAP

 RUNWAY INFORMATION
Runway 07 Runway length 8300 ft Runway width 148 ft
Runway elevation 16 ft Runway displaced threshold 0 ft Runway heading 74
Runway 25 Runway length 8300 ft Runway width 148 ft
Runway elevation 20 ft Runway displaced threshold 324 ft Runway heading 254
Runway 16L Runway length 7999 ft Runway width 148 ft
Runway elevation 16 ft Runway displaced threshold 758 ft Runway heading 168
Runway 34R Runway length 7999 ft Runway width 148 ft
Runway elevation 13 ft Runway displaced threshold 125 ft Runway heading 348
Runway 16R Runway length 12999 ft Runway width 148 ft
Runway elevation 8 ft Runway displaced threshold 279 ft Runway heading 168
Runway 34L Runway length 12999 ft Runway width 148 ft
Runway elevation 14 ft Runway displaced threshold 0 ft Runway heading 348

 AIRPORT FREQUENCIES
Type APP Name APP Frequency 135.1 MHZ
Type ATIS Name ATIS Frequency 126.25 MHZ
Type CLD Name CLNC DEL Frequency 133.8 MHZ
Type DEP Name DEP Frequency 123 MHZ
Type GND Name GND Frequency 121.7 MHZ
Type OPS Name RAAF AIR O Frequency 1123.5 MHZ
Type TWR Name TWR Frequency 120.5 MHZ

 AIRPORT NEAR NAVIGATION AIDS
Type NDB Name Glenfield Frequency 428 KHZ
Type VOR-DME Name Sydney Frequency 112100 KHZ

-